Confluence, Kentucky
Current Conditions -  °F | °C
As of 4:53 AM on Saturday 22 Nov 2014 (Local Time) from KJKL Reporting Station
Clear Clear  
Wind Chill: 28°   Ceiling: Unl
Heat Index: 33°   Visibility: 10mi
Dew Point: 11°   Wind: 6mph
Humidity: 40%   Direction: 200°SSW
Pressure: 30.36"   Gusts: NA
Location:  37.26°N, 83.38°W
Report Text: KJKL 220953Z AUTO 20005KT 10SM CLR 01/M12 A3036 RMK AO2 SLP287 T00061117
Loading
Personal Weather Stations






























Interactive Weather Map New forecast layout! Learn more

10-Day Weather Forecast

Advertisements
Track Severe Weather on mobile